sensor_id;sensor_type;location;lat;lon;timestamp;pressure;altitude;pressure_sealevel;temperature;humidity
68489;BME280;55481;48.764;8.936;2023-07-31T00:01:01;97070;;;15.3;72
68489;BME280;55481;48.764;8.936;2023-07-31T00:05:55;97070;;;15.2;72
68489;BME280;55481;48.764;8.936;2023-07-31T00:08:26;97070;;;15.2;72
68489;BME280;55481;48.764;8.936;2023-07-31T00:10:57;97070;;;15.2;72
68489;BME280;55481;48.764;8.936;2023-07-31T00:13:28;97070;;;15.1;72
68489;BME280;55481;48.764;8.936;2023-07-31T00:15:59;97070;;;15.1;72
68489;BME280;55481;48.764;8.936;2023-07-31T00:18:37;97070;;;15;72
68489;BME280;55481;48.764;8.936;2023-07-31T00:21:01;97070;;;14.9;72
68489;BME280;55481;48.764;8.936;2023-07-31T00:26:04;97070;;;14.9;72
68489;BME280;55481;48.764;8.936;2023-07-31T00:28:34;97070;;;14.9;72
68489;BME280;55481;48.764;8.936;2023-07-31T00:31:05;97070;;;14.9;72
68489;BME280;55481;48.764;8.936;2023-07-31T00:33:37;97070;;;14.8;72
68489;BME280;55481;48.764;8.936;2023-07-31T00:36:07;97070;;;14.8;72
68489;BME280;55481;48.764;8.936;2023-07-31T00:38:38;97070;;;14.8;72
68489;BME280;55481;48.764;8.936;2023-07-31T00:41:09;97070;;;14.7;72
68489;BME280;55481;48.764;8.936;2023-07-31T00:43:40;97070;;;14.7;72
68489;BME280;55481;48.764;8.936;2023-07-31T00:51:06;97060;;;14.7;72
68489;BME280;55481;48.764;8.936;2023-07-31T00:53:36;97070;;;14.6;72.5
68489;BME280;55481;48.764;8.936;2023-07-31T00:56:07;97070;;;14.6;72.5
68489;BME280;55481;48.764;8.936;2023-07-31T00:58:38;97060;;;14.5;72.5
68489;BME280;55481;48.764;8.936;2023-07-31T01:01:15;97070;;;14.5;72.5
68489;BME280;55481;48.764;8.936;2023-07-31T01:03:45;97060;;;14.4;72.5
68489;BME280;55481;48.764;8.936;2023-07-31T01:08:52;97060;;;14.4;72.5
68489;BME280;55481;48.764;8.936;2023-07-31T01:13:56;97050;;;14.4;72.5
68489;BME280;55481;48.764;8.936;2023-07-31T01:16:26;97050;;;14.4;72.5
68489;BME280;55481;48.764;8.936;2023-07-31T01:18:50;97050;;;14.5;72
68489;BME280;55481;48.764;8.936;2023-07-31T01:21:25;97050;;;14.6;72
68489;BME280;55481;48.764;8.936;2023-07-31T01:24:08;97050;;;14.6;72
68489;BME280;55481;48.764;8.936;2023-07-31T01:29:03;97050;;;14.5;72
68489;BME280;55481;48.764;8.936;2023-07-31T01:31:25;97050;;;14.5;72
68489;BME280;55481;48.764;8.936;2023-07-31T01:36:33;97040;;;14.6;72
68489;BME280;55481;48.764;8.936;2023-07-31T01:39:03;97040;;;14.6;72
68489;BME280;55481;48.764;8.936;2023-07-31T01:41:34;97030;;;14.6;72
68489;BME280;55481;48.764;8.936;2023-07-31T01:46:28;97030;;;14.5;72
68489;BME280;55481;48.764;8.936;2023-07-31T01:49:05;97030;;;14.5;72.5
68489;BME280;55481;48.764;8.936;2023-07-31T01:51:37;97030;;;14.4;72.5
68489;BME280;55481;48.764;8.936;2023-07-31T01:59:09;97020;;;14.3;72.5
68489;BME280;55481;48.764;8.936;2023-07-31T02:01:39;97010;;;14.2;72.5
68489;BME280;55481;48.764;8.936;2023-07-31T02:09:10;97010;;;14.3;72.5
68489;BME280;55481;48.764;8.936;2023-07-31T02:11:35;97010;;;14.2;72.5
68489;BME280;55481;48.764;8.936;2023-07-31T02:14:06;97010;;;14.2;72.5
68489;BME280;55481;48.764;8.936;2023-07-31T02:16:37;97000;;;14.1;72.5
68489;BME280;55481;48.764;8.936;2023-07-31T02:21:45;97000;;;14.2;72.5
68489;BME280;55481;48.764;8.936;2023-07-31T02:24:23;97000;;;14.1;72.5
68489;BME280;55481;48.764;8.936;2023-07-31T02:26:45;96990;;;14.1;72.5
68489;BME280;55481;48.764;8.936;2023-07-31T02:31:45;96990;;;14;73
68489;BME280;55481;48.764;8.936;2023-07-31T02:34:17;96990;;;14;73
68489;BME280;55481;48.764;8.936;2023-07-31T02:41:49;96980;;;14;72.5
68489;BME280;55481;48.764;8.936;2023-07-31T02:44:20;96980;;;14;73
68489;BME280;55481;48.764;8.936;2023-07-31T02:46:50;96980;;;14;73
68489;BME280;55481;48.764;8.936;2023-07-31T02:49:20;96970;;;13.9;73
68489;BME280;55481;48.764;8.936;2023-07-31T02:54:14;96970;;;13.9;73
68489;BME280;55481;48.764;8.936;2023-07-31T02:56:45;96970;;;13.9;73
68489;BME280;55481;48.764;8.936;2023-07-31T02:59:23;96970;;;14;72.5
68489;BME280;55481;48.764;8.936;2023-07-31T03:01:54;96970;;;14;72.5
68489;BME280;55481;48.764;8.936;2023-07-31T03:07:09;96980;;;14.1;72.5
68489;BME280;55481;48.764;8.936;2023-07-31T03:11:56;96980;;;14.1;72.5
68489;BME280;55481;48.764;8.936;2023-07-31T03:14:27;96980;;;14.2;72
68489;BME280;55481;48.764;8.936;2023-07-31T03:16:57;96970;;;14.1;72.5
68489;BME280;55481;48.764;8.936;2023-07-31T03:19:27;96970;;;14.1;72.5
68489;BME280;55481;48.764;8.936;2023-07-31T03:21:59;96970;;;14.1;72.5
68489;BME280;55481;48.764;8.936;2023-07-31T03:24:23;96970;;;14.1;72
68489;BME280;55481;48.764;8.936;2023-07-31T03:27:00;96970;;;14.1;72.5
68489;BME280;55481;48.764;8.936;2023-07-31T03:31:55;96970;;;14.1;72.5
68489;BME280;55481;48.764;8.936;2023-07-31T03:34:26;96980;;;14.1;72
68489;BME280;55481;48.764;8.936;2023-07-31T03:36:57;96980;;;14.1;72.5
68489;BME280;55481;48.764;8.936;2023-07-31T03:39:28;96970;;;14.1;72.5
68489;BME280;55481;48.764;8.936;2023-07-31T03:41:59;96980;;;14.1;72.5
68489;BME280;55481;48.764;8.936;2023-07-31T03:44:30;96980;;;14.1;72.5
68489;BME280;55481;48.764;8.936;2023-07-31T03:46:54;96980;;;14.2;72
68489;BME280;55481;48.764;8.936;2023-07-31T03:56:57;96970;;;14.4;72
68489;BME280;55481;48.764;8.936;2023-07-31T03:59:28;96980;;;14.5;71.5
68489;BME280;55481;48.764;8.936;2023-07-31T04:01:59;96980;;;14.6;71.5
68489;BME280;55481;48.764;8.936;2023-07-31T04:04:29;96980;;;14.6;71.5
68489;BME280;55481;48.764;8.936;2023-07-31T04:07:00;96980;;;14.7;71.5
68489;BME280;55481;48.764;8.936;2023-07-31T04:09:31;96970;;;14.6;71.5
68489;BME280;55481;48.764;8.936;2023-07-31T04:12:08;96970;;;14.6;71.5
68489;BME280;55481;48.764;8.936;2023-07-31T04:14:39;96960;;;14.6;71.5
68489;BME280;55481;48.764;8.936;2023-07-31T04:17:11;96960;;;14.7;71.5
68489;BME280;55481;48.764;8.936;2023-07-31T04:24:36;96960;;;14.9;71.5
68489;BME280;55481;48.764;8.936;2023-07-31T04:27:07;96960;;;14.9;71.5
68489;BME280;55481;48.764;8.936;2023-07-31T04:29:37;96960;;;14.9;71.5
68489;BME280;55481;48.764;8.936;2023-07-31T04:32:10;96970;;;14.9;71.5
68489;BME280;55481;48.764;8.936;2023-07-31T04:34:39;96970;;;15;71.5
68489;BME280;55481;48.764;8.936;2023-07-31T04:39:46;96960;;;15;71.5
68489;BME280;55481;48.764;8.936;2023-07-31T04:42:17;96960;;;14.9;71.5
68489;BME280;55481;48.764;8.936;2023-07-31T04:44:48;96960;;;15;71.5
68489;BME280;55481;48.764;8.936;2023-07-31T04:52:27;96960;;;15;71.5
68489;BME280;55481;48.764;8.936;2023-07-31T04:55:04;96960;;;15;71.5
68489;BME280;55481;48.764;8.936;2023-07-31T04:57:41;96960;;;15;71.5
68489;BME280;55481;48.764;8.936;2023-07-31T05:02:22;96960;;;15;71.5
68489;BME280;55481;48.764;8.936;2023-07-31T05:04:53;96960;;;15;71.5
68489;BME280;55481;48.764;8.936;2023-07-31T05:09:47;96950;;;15;71.5
68489;BME280;55481;48.764;8.936;2023-07-31T05:12:21;96960;;;15;71.5
68489;BME280;55481;48.764;8.936;2023-07-31T05:19:51;96950;;;15;71.5
68489;BME280;55481;48.764;8.936;2023-07-31T05:22:21;96950;;;15.1;71.5
68489;BME280;55481;48.764;8.936;2023-07-31T05:24:52;96950;;;15.1;71.5
68489;BME280;55481;48.764;8.936;2023-07-31T05:27:31;96950;;;15.2;71
68489;BME280;55481;48.764;8.936;2023-07-31T05:30:01;96960;;;15.3;71
68489;BME280;55481;48.764;8.936;2023-07-31T05:34:57;96960;;;15.4;70.5
68489;BME280;55481;48.764;8.936;2023-07-31T05:37:29;96960;;;15.5;70.5
68489;BME280;55481;48.764;8.936;2023-07-31T05:39:57;96960;;;15.6;70.5
68489;BME280;55481;48.764;8.936;2023-07-31T05:42:27;96950;;;15.6;70.5
68489;BME280;55481;48.764;8.936;2023-07-31T05:49:59;96950;;;16;70
68489;BME280;55481;48.764;8.936;2023-07-31T05:52:37;96950;;;16.1;70
68489;BME280;55481;48.764;8.936;2023-07-31T05:55:12;96950;;;16.2;70
68489;BME280;55481;48.764;8.936;2023-07-31T06:00:10;96940;;;16.3;70
68489;BME280;55481;48.764;8.936;2023-07-31T06:02:47;96950;;;16.4;70
68489;BME280;55481;48.764;8.936;2023-07-31T06:05:25;96950;;;16.4;69.5
68489;BME280;55481;48.764;8.936;2023-07-31T06:08:02;96950;;;16.5;69.5
68489;BME280;55481;48.764;8.936;2023-07-31T06:12:43;96940;;;16.7;69.5
68489;BME280;55481;48.764;8.936;2023-07-31T06:15:14;96940;;;16.8;69.5
68489;BME280;55481;48.764;8.936;2023-07-31T06:20:18;96930;;;17;69
68489;BME280;55481;48.764;8.936;2023-07-31T06:22:46;96930;;;17.1;69
68489;BME280;55481;48.764;8.936;2023-07-31T06:25:17;96940;;;17.2;69
68489;BME280;55481;48.764;8.936;2023-07-31T06:27:48;96930;;;17.3;69
68489;BME280;55481;48.764;8.936;2023-07-31T06:30:24;96940;;;17.5;68.5
68489;BME280;55481;48.764;8.936;2023-07-31T06:35:34;96930;;;17.8;68
68489;BME280;55481;48.764;8.936;2023-07-31T06:40:29;96930;;;18.1;68
68489;BME280;55481;48.764;8.936;2023-07-31T06:42:59;96930;;;18.2;68
68489;BME280;55481;48.764;8.936;2023-07-31T06:45:29;96940;;;18.4;67.5
68489;BME280;55481;48.764;8.936;2023-07-31T06:47:59;96940;;;18.5;67.5
68489;BME280;55481;48.764;8.936;2023-07-31T06:52:54;96940;;;18.1;69
68489;BME280;55481;48.764;8.936;2023-07-31T06:55:26;96940;;;18.3;68.5
68489;BME280;55481;48.764;8.936;2023-07-31T07:00:33;96940;;;18.4;68.5
68489;BME280;55481;48.764;8.936;2023-07-31T07:03:03;96940;;;18.6;68
68489;BME280;55481;48.764;8.936;2023-07-31T07:07:56;96930;;;19.2;66.5
68489;BME280;55481;48.764;8.936;2023-07-31T07:10:28;96930;;;19;67.5
68489;BME280;55481;48.764;8.936;2023-07-31T07:13:05;96930;;;19.3;67
68489;BME280;55481;48.764;8.936;2023-07-31T07:15:29;96920;;;19.3;67
68489;BME280;55481;48.764;8.936;2023-07-31T07:20:37;96930;;;19.1;67.5
68489;BME280;55481;48.764;8.936;2023-07-31T07:23:07;96920;;;18.8;68.5
68489;BME280;55481;48.764;8.936;2023-07-31T07:25:38;96920;;;18.5;69
68489;BME280;55481;48.764;8.936;2023-07-31T07:28:15;96920;;;18.4;69.5
68489;BME280;55481;48.764;8.936;2023-07-31T07:30:53;96920;;;18.5;69.5
68489;BME280;55481;48.764;8.936;2023-07-31T07:33:22;96910;;;18.9;68.5
68489;BME280;55481;48.764;8.936;2023-07-31T07:38:03;96910;;;19;68
68489;BME280;55481;48.764;8.936;2023-07-31T07:45:36;96910;;;19.2;67.5
68489;BME280;55481;48.764;8.936;2023-07-31T07:50:44;96900;;;20;66
68489;BME280;55481;48.764;8.936;2023-07-31T07:53:14;96900;;;20;66
68489;BME280;55481;48.764;8.936;2023-07-31T07:55:44;96900;;;20.4;65.5
68489;BME280;55481;48.764;8.936;2023-07-31T07:58:17;96900;;;20.8;64.5
68489;BME280;55481;48.764;8.936;2023-07-31T08:03:10;96910;;;20.2;66
68489;BME280;55481;48.764;8.936;2023-07-31T08:05:40;96910;;;20;67
68489;BME280;55481;48.764;8.936;2023-07-31T08:08:15;96900;;;20.3;66
68489;BME280;55481;48.764;8.936;2023-07-31T08:10:42;96900;;;20.4;66
68489;BME280;55481;48.764;8.936;2023-07-31T08:15:51;96880;;;21;65
68489;BME280;55481;48.764;8.936;2023-07-31T08:18:20;96880;;;21.1;64.5
68489;BME280;55481;48.764;8.936;2023-07-31T08:20:50;96880;;;21.1;65
68489;BME280;55481;48.764;8.936;2023-07-31T08:28:15;96880;;;21.2;65
68489;BME280;55481;48.764;8.936;2023-07-31T08:30:46;96880;;;21.3;65
68489;BME280;55481;48.764;8.936;2023-07-31T08:33:17;96870;;;20.6;66.5
68489;BME280;55481;48.764;8.936;2023-07-31T08:35:48;96880;;;20.6;66.5
68489;BME280;55481;48.764;8.936;2023-07-31T08:38:19;96880;;;20.4;67
68489;BME280;55481;48.764;8.936;2023-07-31T08:40:49;96870;;;20.9;66
68489;BME280;55481;48.764;8.936;2023-07-31T08:43:20;96870;;;21.3;65
68489;BME280;55481;48.764;8.936;2023-07-31T08:45:53;96870;;;21.2;65
68489;BME280;55481;48.764;8.936;2023-07-31T08:48:23;96860;;;21.7;64
68489;BME280;55481;48.764;8.936;2023-07-31T08:51:01;96870;;;21.7;64
68489;BME280;55481;48.764;8.936;2023-07-31T08:53:38;96860;;;21.8;64
68489;BME280;55481;48.764;8.936;2023-07-31T08:58:27;96870;;;21.2;65.5
68489;BME280;55481;48.764;8.936;2023-07-31T09:00:58;96860;;;20.9;66
68489;BME280;55481;48.764;8.936;2023-07-31T09:03:29;96850;;;21.1;66
68489;BME280;55481;48.764;8.936;2023-07-31T09:06:04;96850;;;21.4;65
68489;BME280;55481;48.764;8.936;2023-07-31T09:08:30;96840;;;21.2;65.5
68489;BME280;55481;48.764;8.936;2023-07-31T09:11:02;96850;;;21;66
68489;BME280;55481;48.764;8.936;2023-07-31T09:16:03;96860;;;20.4;67
68489;BME280;55481;48.764;8.936;2023-07-31T09:18:45;96860;;;20.2;67.5
68489;BME280;55481;48.764;8.936;2023-07-31T09:21:05;96860;;;20.1;67.5
68489;BME280;55481;48.764;8.936;2023-07-31T09:26:35;96860;;;20.2;67
68489;BME280;55481;48.764;8.936;2023-07-31T09:31:12;96850;;;20.2;66.5
68489;BME280;55481;48.764;8.936;2023-07-31T09:33:55;96840;;;20.5;66
68489;BME280;55481;48.764;8.936;2023-07-31T09:36:14;96830;;;20.9;65
68489;BME280;55481;48.764;8.936;2023-07-31T09:41:07;96820;;;21;65
68489;BME280;55481;48.764;8.936;2023-07-31T09:43:38;96810;;;20.8;65.5
68489;BME280;55481;48.764;8.936;2023-07-31T09:46:13;96810;;;20.6;66
68489;BME280;55481;48.764;8.936;2023-07-31T09:49:11;96800;;;20.7;65.5
68489;BME280;55481;48.764;8.936;2023-07-31T09:53:49;96810;;;21.2;64.5
68489;BME280;55481;48.764;8.936;2023-07-31T09:58:50;96800;;;21.8;63
68489;BME280;55481;48.764;8.936;2023-07-31T10:01:20;96800;;;21.8;63.5
68489;BME280;55481;48.764;8.936;2023-07-31T10:03:55;96790;;;21.6;64
68489;BME280;55481;48.764;8.936;2023-07-31T10:06:28;96790;;;21.5;64.5
68489;BME280;55481;48.764;8.936;2023-07-31T10:09:05;96780;;;21.5;64.5
68489;BME280;55481;48.764;8.936;2023-07-31T10:11:21;96780;;;22;63.5
68489;BME280;55481;48.764;8.936;2023-07-31T10:13:51;96780;;;22;63.5
68489;BME280;55481;48.764;8.936;2023-07-31T10:16:21;96780;;;22;63.5
68489;BME280;55481;48.764;8.936;2023-07-31T10:18:52;96780;;;22.1;63.5
68489;BME280;55481;48.764;8.936;2023-07-31T10:21:28;96780;;;22.2;63.5
68489;BME280;55481;48.764;8.936;2023-07-31T10:23:59;96770;;;22.4;63
68489;BME280;55481;48.764;8.936;2023-07-31T10:26:25;96770;;;22.3;63
68489;BME280;55481;48.764;8.936;2023-07-31T10:28:52;96770;;;22.5;63
68489;BME280;55481;48.764;8.936;2023-07-31T10:31:16;96750;;;22.6;62.5
68489;BME280;55481;48.764;8.936;2023-07-31T10:33:47;96760;;;22.8;62
68489;BME280;55481;48.764;8.936;2023-07-31T10:36:19;96760;;;22.9;62
68489;BME280;55481;48.764;8.936;2023-07-31T10:38:50;96750;;;23.2;61.5
68489;BME280;55481;48.764;8.936;2023-07-31T10:41:27;96760;;;23.4;61
68489;BME280;55481;48.764;8.936;2023-07-31T10:44:01;96750;;;23.8;60.5
68489;BME280;55481;48.764;8.936;2023-07-31T10:48:57;96750;;;24.2;60
68489;BME280;55481;48.764;8.936;2023-07-31T10:54:09;96760;;;23.5;62
68489;BME280;55481;48.764;8.936;2023-07-31T10:56:26;96760;;;23.1;62.5
68489;BME280;55481;48.764;8.936;2023-07-31T10:59:00;96750;;;22.8;63.5
68489;BME280;55481;48.764;8.936;2023-07-31T11:01:49;96750;;;22.8;63.5
68489;BME280;55481;48.764;8.936;2023-07-31T11:04:10;96750;;;22.9;63
68489;BME280;55481;48.764;8.936;2023-07-31T11:06:33;96750;;;22.8;63
68489;BME280;55481;48.764;8.936;2023-07-31T11:09:02;96740;;;22.5;63.5
68489;BME280;55481;48.764;8.936;2023-07-31T11:11:32;96750;;;22.4;64
68489;BME280;55481;48.764;8.936;2023-07-31T11:14:09;96750;;;22.2;64
68489;BME280;55481;48.764;8.936;2023-07-31T11:19:05;96750;;;22;64.5
68489;BME280;55481;48.764;8.936;2023-07-31T11:21:36;96750;;;21.9;64.5
68489;BME280;55481;48.764;8.936;2023-07-31T11:24:07;96750;;;22;64
68489;BME280;55481;48.764;8.936;2023-07-31T11:26:37;96750;;;22.1;64
68489;BME280;55481;48.764;8.936;2023-07-31T11:29:12;96750;;;22.2;63.5
68489;BME280;55481;48.764;8.936;2023-07-31T11:31:43;96750;;;22.2;63.5
68489;BME280;55481;48.764;8.936;2023-07-31T11:34:11;96750;;;22.3;63
68489;BME280;55481;48.764;8.936;2023-07-31T11:36:53;96750;;;22.1;63.5
68489;BME280;55481;48.764;8.936;2023-07-31T11:39:19;96750;;;22;64
68489;BME280;55481;48.764;8.936;2023-07-31T11:44:22;96740;;;22.2;63
68489;BME280;55481;48.764;8.936;2023-07-31T11:49:16;96730;;;22.2;63
68489;BME280;55481;48.764;8.936;2023-07-31T11:51:47;96730;;;22.2;63.5
68489;BME280;55481;48.764;8.936;2023-07-31T11:54:18;96730;;;22.3;63
68489;BME280;55481;48.764;8.936;2023-07-31T11:59:27;96710;;;22.2;63
68489;BME280;55481;48.764;8.936;2023-07-31T12:01:57;96710;;;22.1;63.5
68489;BME280;55481;48.764;8.936;2023-07-31T12:04:21;96710;;;22;63.5
68489;BME280;55481;48.764;8.936;2023-07-31T12:09:24;96710;;;22.1;63
68489;BME280;55481;48.764;8.936;2023-07-31T12:11:54;96710;;;22;63.5
68489;BME280;55481;48.764;8.936;2023-07-31T12:14:36;96720;;;21.9;63.5
68489;BME280;55481;48.764;8.936;2023-07-31T12:17:04;96720;;;21.9;63.5
68489;BME280;55481;48.764;8.936;2023-07-31T12:24:28;96700;;;21.5;64
68489;BME280;55481;48.764;8.936;2023-07-31T12:27:07;96700;;;21.5;64
68489;BME280;55481;48.764;8.936;2023-07-31T12:29:35;96700;;;21.6;63.5
68489;BME280;55481;48.764;8.936;2023-07-31T12:31:59;96690;;;21.5;64
68489;BME280;55481;48.764;8.936;2023-07-31T12:34:30;96690;;;21.7;63.5
68489;BME280;55481;48.764;8.936;2023-07-31T12:37:06;96680;;;22;63
68489;BME280;55481;48.764;8.936;2023-07-31T12:39:32;96690;;;22.4;62
68489;BME280;55481;48.764;8.936;2023-07-31T12:42:03;96680;;;22.8;61
68489;BME280;55481;48.764;8.936;2023-07-31T12:44:34;96680;;;22.7;61.5
68489;BME280;55481;48.764;8.936;2023-07-31T12:47:05;96670;;;22.6;61.5
68489;BME280;55481;48.764;8.936;2023-07-31T12:49:42;96660;;;23.1;60.5
68489;BME280;55481;48.764;8.936;2023-07-31T12:54:38;96650;;;23.3;60.5
68489;BME280;55481;48.764;8.936;2023-07-31T12:57:09;96650;;;23.3;60.5
68489;BME280;55481;48.764;8.936;2023-07-31T12:59:40;96650;;;22.9;61.5
68489;BME280;55481;48.764;8.936;2023-07-31T13:02:11;96650;;;23.2;61
68489;BME280;55481;48.764;8.936;2023-07-31T13:04:42;96650;;;24;59.5
68489;BME280;55481;48.764;8.936;2023-07-31T13:07:13;96640;;;23.8;60
68489;BME280;55481;48.764;8.936;2023-07-31T13:09:43;96650;;;23.7;60
68489;BME280;55481;48.764;8.936;2023-07-31T13:12:14;96640;;;24.1;59.5
68489;BME280;55481;48.764;8.936;2023-07-31T13:14:45;96630;;;25.6;56.5
68489;BME280;55481;48.764;8.936;2023-07-31T13:17:23;96630;;;24.7;58.5
68489;BME280;55481;48.764;8.936;2023-07-31T13:19:54;96620;;;24.9;58.5
68489;BME280;55481;48.764;8.936;2023-07-31T13:24:52;96600;;;26.2;56
68489;BME280;55481;48.764;8.936;2023-07-31T13:27:20;96600;;;27.2;54
68489;BME280;55481;48.764;8.936;2023-07-31T13:29:51;96610;;;27;55
68489;BME280;55481;48.764;8.936;2023-07-31T13:32:22;96610;;;26.9;55.5
68489;BME280;55481;48.764;8.936;2023-07-31T13:34:53;96610;;;26.4;57
68489;BME280;55481;48.764;8.936;2023-07-31T13:37:24;96620;;;24.9;60
68489;BME280;55481;48.764;8.936;2023-07-31T13:39:49;96620;;;23.8;62.5
68489;BME280;55481;48.764;8.936;2023-07-31T13:42:19;96620;;;23.5;63
68489;BME280;55481;48.764;8.936;2023-07-31T13:49:52;96610;;;23.3;62
68489;BME280;55481;48.764;8.936;2023-07-31T13:52:27;96610;;;23.5;61.5
68489;BME280;55481;48.764;8.936;2023-07-31T13:54:53;96600;;;23.3;61.5
68489;BME280;55481;48.764;8.936;2023-07-31T13:57:24;96610;;;23.2;62
68489;BME280;55481;48.764;8.936;2023-07-31T13:59:55;96600;;;23.1;62
68489;BME280;55481;48.764;8.936;2023-07-31T14:02:26;96600;;;22.9;62
68489;BME280;55481;48.764;8.936;2023-07-31T14:07:33;96590;;;23.1;61.5
68489;BME280;55481;48.764;8.936;2023-07-31T14:10:04;96580;;;23.3;61
68489;BME280;55481;48.764;8.936;2023-07-31T14:12:35;96580;;;23.2;61
68489;BME280;55481;48.764;8.936;2023-07-31T14:15:12;96580;;;23.2;61
68489;BME280;55481;48.764;8.936;2023-07-31T14:17:43;96590;;;23.1;61
68489;BME280;55481;48.764;8.936;2023-07-31T14:22:38;96570;;;23.8;59.5
68489;BME280;55481;48.764;8.936;2023-07-31T14:25:15;96580;;;23.9;59.5
68489;BME280;55481;48.764;8.936;2023-07-31T14:30:16;96570;;;24;59
68489;BME280;55481;48.764;8.936;2023-07-31T14:32:47;96570;;;24.1;59
68489;BME280;55481;48.764;8.936;2023-07-31T14:35:17;96570;;;24.3;58.5
68489;BME280;55481;48.764;8.936;2023-07-31T14:37:43;96570;;;24.2;59
68489;BME280;55481;48.764;8.936;2023-07-31T14:40:12;96570;;;24.6;58.5
68489;BME280;55481;48.764;8.936;2023-07-31T14:42:50;96560;;;24.9;57.5
68489;BME280;55481;48.764;8.936;2023-07-31T14:50:22;96580;;;23.5;60.5
68489;BME280;55481;48.764;8.936;2023-07-31T14:52:52;96570;;;23.4;61
68489;BME280;55481;48.764;8.936;2023-07-31T14:57:47;96570;;;22.9;61.5
68489;BME280;55481;48.764;8.936;2023-07-31T15:00:17;96580;;;22.6;62
68489;BME280;55481;48.764;8.936;2023-07-31T15:02:48;96580;;;22.6;62
68489;BME280;55481;48.764;8.936;2023-07-31T15:10:14;96560;;;23.1;60.5
68489;BME280;55481;48.764;8.936;2023-07-31T15:12:44;96560;;;23.2;60
68489;BME280;55481;48.764;8.936;2023-07-31T15:15:15;96550;;;23.8;58.5
68489;BME280;55481;48.764;8.936;2023-07-31T15:17:46;96550;;;23.9;58.5
68489;BME280;55481;48.764;8.936;2023-07-31T15:20:17;96550;;;24;58.5
68489;BME280;55481;48.764;8.936;2023-07-31T15:22:54;96540;;;24;58.5
68489;BME280;55481;48.764;8.936;2023-07-31T15:25:25;96530;;;23.8;59
68489;BME280;55481;48.764;8.936;2023-07-31T15:27:56;96530;;;23.5;59.5
68489;BME280;55481;48.764;8.936;2023-07-31T15:37:52;96500;;;23.6;59.5
68489;BME280;55481;48.764;8.936;2023-07-31T15:40:23;96510;;;23.4;60
68489;BME280;55481;48.764;8.936;2023-07-31T15:42:54;96510;;;23.3;60
68489;BME280;55481;48.764;8.936;2023-07-31T15:45:25;96500;;;23.4;60
68489;BME280;55481;48.764;8.936;2023-07-31T15:47:56;96480;;;23.4;59.5
68489;BME280;55481;48.764;8.936;2023-07-31T15:50:26;96470;;;23.3;60
68489;BME280;55481;48.764;8.936;2023-07-31T15:55:34;96480;;;23.5;59.5
68489;BME280;55481;48.764;8.936;2023-07-31T15:58:05;96480;;;23.7;59
68489;BME280;55481;48.764;8.936;2023-07-31T16:00:36;96490;;;23.6;59
68489;BME280;55481;48.764;8.936;2023-07-31T16:05:50;96500;;;23;60.5
68489;BME280;55481;48.764;8.936;2023-07-31T16:08:21;96490;;;22.9;60.5
68489;BME280;55481;48.764;8.936;2023-07-31T16:10:44;96490;;;22.9;60.5
68489;BME280;55481;48.764;8.936;2023-07-31T16:13:14;96480;;;22.8;60.5
68489;BME280;55481;48.764;8.936;2023-07-31T16:18:09;96480;;;22.6;61
68489;BME280;55481;48.764;8.936;2023-07-31T16:20:40;96480;;;22.4;61
68489;BME280;55481;48.764;8.936;2023-07-31T16:30:36;96480;;;22.4;61
68489;BME280;55481;48.764;8.936;2023-07-31T16:35:41;96490;;;22.1;61
68489;BME280;55481;48.764;8.936;2023-07-31T16:38:09;96490;;;22.1;61
68489;BME280;55481;48.764;8.936;2023-07-31T16:40:39;96480;;;21.9;61.5
68489;BME280;55481;48.764;8.936;2023-07-31T16:43:10;96480;;;21.8;61.5
68489;BME280;55481;48.764;8.936;2023-07-31T16:50:43;96480;;;21.6;61.5
68489;BME280;55481;48.764;8.936;2023-07-31T16:53:40;96480;;;21.6;61
68489;BME280;55481;48.764;8.936;2023-07-31T16:56:01;96480;;;21.6;61
68489;BME280;55481;48.764;8.936;2023-07-31T16:58:27;96480;;;21.6;61
68489;BME280;55481;48.764;8.936;2023-07-31T17:00:57;96470;;;21.6;61
68489;BME280;55481;48.764;8.936;2023-07-31T17:03:27;96460;;;21.6;61
68489;BME280;55481;48.764;8.936;2023-07-31T17:05:57;96460;;;21.5;61
68489;BME280;55481;48.764;8.936;2023-07-31T17:08:28;96460;;;21.6;61
68489;BME280;55481;48.764;8.936;2023-07-31T17:10:58;96450;;;21.6;61
68489;BME280;55481;48.764;8.936;2023-07-31T17:13:35;96440;;;21.6;61
68489;BME280;55481;48.764;8.936;2023-07-31T17:16:06;96440;;;21.5;61
68489;BME280;55481;48.764;8.936;2023-07-31T17:18:28;96460;;;21.5;61
68489;BME280;55481;48.764;8.936;2023-07-31T17:20:59;96470;;;21.5;61
68489;BME280;55481;48.764;8.936;2023-07-31T17:23:29;96470;;;21.5;61
68489;BME280;55481;48.764;8.936;2023-07-31T17:25:59;96460;;;21.5;61
68489;BME280;55481;48.764;8.936;2023-07-31T17:28:29;96450;;;21.6;61
68489;BME280;55481;48.764;8.936;2023-07-31T17:30:59;96460;;;21.6;61
68489;BME280;55481;48.764;8.936;2023-07-31T17:33:29;96460;;;21.6;61
68489;BME280;55481;48.764;8.936;2023-07-31T17:35:59;96450;;;21.5;61
68489;BME280;55481;48.764;8.936;2023-07-31T17:38:30;96450;;;21.5;61
68489;BME280;55481;48.764;8.936;2023-07-31T17:41:11;96440;;;21.5;61
68489;BME280;55481;48.764;8.936;2023-07-31T17:46:07;96440;;;21.6;61
68489;BME280;55481;48.764;8.936;2023-07-31T17:48:31;96440;;;21.5;61
68489;BME280;55481;48.764;8.936;2023-07-31T17:51:08;96450;;;21.5;61
68489;BME280;55481;48.764;8.936;2023-07-31T17:53:44;96450;;;21.4;61.5
68489;BME280;55481;48.764;8.936;2023-07-31T17:56:05;96450;;;21.3;61.5
68489;BME280;55481;48.764;8.936;2023-07-31T17:58:31;96450;;;21.4;61.5
68489;BME280;55481;48.764;8.936;2023-07-31T18:01:01;96460;;;21.3;61.5
68489;BME280;55481;48.764;8.936;2023-07-31T18:03:38;96450;;;21.2;61.5
68489;BME280;55481;48.764;8.936;2023-07-31T18:06:08;96450;;;21.1;61.5
68489;BME280;55481;48.764;8.936;2023-07-31T18:11:02;96440;;;21;61.5
68489;BME280;55481;48.764;8.936;2023-07-31T18:13:33;96430;;;20.9;62
68489;BME280;55481;48.764;8.936;2023-07-31T18:16:10;96430;;;20.9;62
68489;BME280;55481;48.764;8.936;2023-07-31T18:18:34;96430;;;20.8;62
68489;BME280;55481;48.764;8.936;2023-07-31T18:21:03;96420;;;20.7;62
68489;BME280;55481;48.764;8.936;2023-07-31T18:23:33;96410;;;20.6;62.5
68489;BME280;55481;48.764;8.936;2023-07-31T18:26:10;96410;;;20.5;62.5
68489;BME280;55481;48.764;8.936;2023-07-31T18:28:46;96420;;;20.4;63